createdAt,value
2023-02-26T00:01:41.250Z,0.02
2023-02-26T00:04:10.185Z,-0.04
2023-02-26T00:06:39.899Z,-0.03
2023-02-26T00:09:07.438Z,-0.10
2023-02-26T00:11:35.030Z,-0.12
2023-02-26T00:14:02.790Z,-0.10
2023-02-26T00:16:36.073Z,-0.13
2023-02-26T00:19:05.776Z,-0.12
2023-02-26T00:21:34.240Z,-0.14
2023-02-26T00:24:02.426Z,-0.15
2023-02-26T00:26:31.574Z,-0.11
2023-02-26T00:29:00.166Z,-0.15
2023-02-26T00:31:28.199Z,-0.23
2023-02-26T00:33:57.552Z,-0.25
2023-02-26T00:36:50.147Z,-0.27
2023-02-26T00:39:36.587Z,-0.29
2023-02-26T00:42:04.408Z,-0.34
2023-02-26T00:44:32.513Z,-0.31
2023-02-26T00:47:23.671Z,-0.32
2023-02-26T00:50:05.857Z,-0.30
2023-02-26T00:52:36.932Z,-0.39
2023-02-26T00:55:04.824Z,-0.37
2023-02-26T00:57:31.924Z,-0.39
2023-02-26T00:59:59.501Z,-0.47
2023-02-26T01:02:27.328Z,-0.43
2023-02-26T01:04:56.410Z,-0.42
2023-02-26T01:07:24.867Z,-0.42
2023-02-26T01:09:52.885Z,-0.46
2023-02-26T01:12:20.424Z,-0.43
2023-02-26T01:14:48.403Z,-0.49
2023-02-26T01:17:36.822Z,-0.47
2023-02-26T01:20:25.831Z,-0.49
2023-02-26T01:23:05.318Z,-0.57
2023-02-26T01:25:43.554Z,-0.54
2023-02-26T01:28:11.293Z,-0.57
2023-02-26T01:30:39.363Z,-0.60
2023-02-26T01:33:25.180Z,-0.51
2023-02-26T01:35:56.313Z,-0.53
2023-02-26T01:38:48.383Z,-0.52
2023-02-26T01:41:34.754Z,-0.54
2023-02-26T01:44:08.108Z,-0.59
2023-02-26T01:47:06.436Z,-0.62
2023-02-26T01:49:34.519Z,-0.57
2023-02-26T01:52:07.228Z,-0.68
2023-02-26T01:54:36.330Z,-0.64
2023-02-26T01:57:06.189Z,-0.68
2023-02-26T01:59:35.689Z,-0.69
2023-02-26T02:02:08.198Z,-0.70
2023-02-26T02:04:36.149Z,-0.76
2023-02-26T02:07:05.646Z,-0.68
2023-02-26T02:09:33.211Z,-0.67
2023-02-26T02:12:35.133Z,-0.70
2023-02-26T02:15:11.460Z,-0.68
2023-02-26T02:18:16.930Z,-0.71
2023-02-26T02:21:06.051Z,-0.71
2023-02-26T02:23:59.746Z,-0.74
2023-02-26T02:26:36.562Z,-0.74
2023-02-26T02:29:28.433Z,-0.72
2023-02-26T02:32:01.466Z,-0.72
2023-02-26T02:34:35.630Z,-0.64
2023-02-26T02:37:05.451Z,-0.64
2023-02-26T02:39:37.770Z,-0.66
2023-02-26T02:42:09.832Z,-0.67
2023-02-26T02:44:41.124Z,-0.62
2023-02-26T02:47:10.108Z,-0.60
2023-02-26T02:50:03.347Z,-0.61
2023-02-26T02:52:39.251Z,-0.63
2023-02-26T02:55:13.561Z,-0.64
2023-02-26T02:57:48.897Z,-0.63
2023-02-26T03:00:17.443Z,-0.58
2023-02-26T03:02:53.199Z,-0.63
2023-02-26T03:05:21.112Z,-0.63
2023-02-26T03:07:55.997Z,-0.60
2023-02-26T03:10:23.727Z,-0.65
2023-02-26T03:12:51.056Z,-0.64
2023-02-26T03:15:42.634Z,-0.64
2023-02-26T03:18:23.310Z,-0.64
2023-02-26T03:21:27.342Z,-0.62
2023-02-26T03:24:06.414Z,-0.62
2023-02-26T03:26:41.042Z,-0.60
2023-02-26T03:29:31.681Z,-0.68
2023-02-26T03:32:04.480Z,-0.63
2023-02-26T03:34:51.833Z,-0.64
2023-02-26T03:37:23.393Z,-0.62
2023-02-26T03:39:54.921Z,-0.64
2023-02-26T03:43:07.430Z,-0.60
2023-02-26T03:45:36.305Z,-0.57
2023-02-26T03:48:06.888Z,-0.67
2023-02-26T03:50:54.189Z,-0.64
2023-02-26T03:53:40.917Z,-0.57
2023-02-26T03:56:28.605Z,-0.60
2023-02-26T03:59:22.097Z,-0.61
2023-02-26T04:02:06.869Z,-0.63
2023-02-26T04:04:46.076Z,-0.61
2023-02-26T04:07:15.186Z,-0.63
2023-02-26T04:09:44.352Z,-0.59
2023-02-26T04:12:11.850Z,-0.58
2023-02-26T04:14:43.143Z,-0.58
2023-02-26T04:17:10.513Z,-0.58
2023-02-26T04:19:38.211Z,-0.57
2023-02-26T04:22:06.217Z,-0.57
2023-02-26T04:24:33.842Z,-0.64
2023-02-26T04:27:02.620Z,-0.55
2023-02-26T04:29:31.090Z,-0.57
2023-02-26T04:31:58.598Z,-0.59
2023-02-26T04:34:26.416Z,-0.58
2023-02-26T04:36:54.063Z,-0.52
2023-02-26T04:39:22.141Z,-0.64
2023-02-26T04:41:49.395Z,-0.63
2023-02-26T04:44:17.048Z,-0.69
2023-02-26T04:46:44.572Z,-0.72
2023-02-26T04:49:13.328Z,-0.70
2023-02-26T04:51:44.274Z,-0.74
2023-02-26T04:54:14.521Z,-0.77
2023-02-26T04:56:42.521Z,-0.81
2023-02-26T04:59:10.464Z,-0.79
2023-02-26T05:01:37.925Z,-0.79
2023-02-26T05:04:08.785Z,-0.77
2023-02-26T05:06:37.061Z,-0.77
2023-02-26T05:09:04.972Z,-0.81
2023-02-26T05:11:33.098Z,-0.81
2023-02-26T05:14:00.721Z,-0.83
2023-02-26T05:16:28.448Z,-0.82
2023-02-26T05:18:58.327Z,-0.85
2023-02-26T05:21:26.356Z,-0.81
2023-02-26T05:23:54.217Z,-0.81
2023-02-26T05:26:21.461Z,-0.90
2023-02-26T05:28:49.429Z,-0.84
2023-02-26T05:31:16.946Z,-0.96
2023-02-26T05:33:45.140Z,-1.09
2023-02-26T05:36:13.258Z,-1.20
2023-02-26T05:38:40.968Z,-1.31
2023-02-26T05:41:08.125Z,-1.47
2023-02-26T05:43:36.297Z,-1.36
2023-02-26T05:46:03.504Z,-1.36
2023-02-26T05:48:31.088Z,-1.38
2023-02-26T05:50:58.403Z,-1.39
2023-02-26T05:53:26.125Z,-1.45
2023-02-26T05:55:54.059Z,-1.47
2023-02-26T05:58:21.794Z,-1.45
2023-02-26T06:00:49.134Z,-1.48
2023-02-26T06:03:16.899Z,-1.50
2023-02-26T06:05:44.185Z,-1.50
2023-02-26T06:08:15.696Z,-1.58
2023-02-26T06:10:43.651Z,-1.58
2023-02-26T06:13:11.357Z,-1.56
2023-02-26T06:15:38.747Z,-1.56
2023-02-26T06:18:06.395Z,-1.56
2023-02-26T06:20:33.605Z,-1.54
2023-02-26T06:23:01.264Z,-1.51
2023-02-26T06:25:28.388Z,-1.51
2023-02-26T06:27:55.890Z,-1.53
2023-02-26T06:30:24.062Z,-1.51
2023-02-26T06:32:51.882Z,-1.52
2023-02-26T06:35:19.198Z,-1.46
2023-02-26T06:37:46.744Z,-1.49
2023-02-26T06:40:14.198Z,-1.39
2023-02-26T06:42:41.616Z,-1.37
2023-02-26T06:45:09.267Z,-1.36
2023-02-26T06:47:36.958Z,-1.30
2023-02-26T06:50:05.395Z,-1.29
2023-02-26T06:52:33.445Z,-1.26
2023-02-26T06:55:00.851Z,-1.25
2023-02-26T06:57:28.463Z,-1.24
2023-02-26T06:59:55.790Z,-1.18
2023-02-26T07:02:24.002Z,-1.20
2023-02-26T07:04:51.483Z,-1.28
2023-02-26T07:07:19.163Z,-1.24
2023-02-26T07:09:46.541Z,-1.23
2023-02-26T07:12:14.586Z,-1.27
2023-02-26T07:14:43.375Z,-1.17
2023-02-26T07:17:19.875Z,-1.13
2023-02-26T07:19:48.457Z,-1.10
2023-02-26T07:22:17.205Z,-1.14
2023-02-26T07:24:45.217Z,-1.14
2023-02-26T07:27:13.136Z,-1.17
2023-02-26T07:29:40.381Z,-1.14
2023-02-26T07:32:08.115Z,-1.13
2023-02-26T07:34:35.678Z,-1.14
2023-02-26T07:37:03.599Z,-1.14
2023-02-26T07:39:31.205Z,-1.14
2023-02-26T07:41:58.878Z,-1.15
2023-02-26T07:44:28.946Z,-1.21
2023-02-26T07:46:56.545Z,-1.17
2023-02-26T07:49:24.307Z,-1.09
2023-02-26T07:51:52.153Z,-1.10
2023-02-26T07:54:19.552Z,-1.05
2023-02-26T07:56:47.195Z,-1.08
2023-02-26T07:59:14.489Z,-1.06
2023-02-26T08:01:42.112Z,-1.10
2023-02-26T08:04:09.463Z,-1.08
2023-02-26T08:06:37.271Z,-1.17
2023-02-26T08:09:05.512Z,-1.10
2023-02-26T08:11:35.665Z,-1.14
2023-02-26T08:14:03.414Z,-1.08
2023-02-26T08:16:31.154Z,-1.08
2023-02-26T08:18:58.254Z,-1.12
2023-02-26T08:21:25.949Z,-1.13
2023-02-26T08:23:53.333Z,-1.19
2023-02-26T08:26:21.014Z,-1.18
2023-02-26T08:28:48.612Z,-1.20
2023-02-26T08:31:16.332Z,-1.18
2023-02-26T08:33:43.836Z,-1.16
2023-02-26T08:36:12.165Z,-1.15
2023-02-26T08:38:39.783Z,-1.12
2023-02-26T08:41:08.386Z,-1.17
2023-02-26T08:43:36.895Z,-1.09
2023-02-26T08:46:04.960Z,-1.08
2023-02-26T08:48:32.322Z,-1.12
2023-02-26T08:50:59.896Z,-0.98
2023-02-26T08:53:27.379Z,-0.95
2023-02-26T08:55:54.880Z,-0.97
2023-02-26T08:58:22.386Z,-0.97
2023-02-26T09:00:50.090Z,-0.88
2023-02-26T09:03:18.502Z,-0.92
2023-02-26T09:05:46.000Z,-0.93
2023-02-26T09:08:16.138Z,-0.99
2023-02-26T09:10:43.879Z,-0.92
2023-02-26T09:13:11.237Z,-0.92
2023-02-26T09:15:38.899Z,-0.95
2023-02-26T09:18:06.697Z,-0.95
2023-02-26T09:20:34.370Z,-0.94
2023-02-26T09:23:01.684Z,-0.89
2023-02-26T09:25:29.222Z,-0.87
2023-02-26T09:27:57.828Z,-0.88
2023-02-26T09:30:26.653Z,-0.80
2023-02-26T09:32:53.890Z,-0.85
2023-02-26T09:35:21.568Z,-0.80
2023-02-26T09:37:48.917Z,-0.78
2023-02-26T09:40:41.281Z,-0.79
2023-02-26T09:43:16.600Z,-0.74
2023-02-26T09:45:46.014Z,-0.69
2023-02-26T09:48:15.611Z,-0.65
2023-02-26T09:51:09.866Z,-0.65
2023-02-26T09:53:41.029Z,-0.61
2023-02-26T09:56:14.974Z,-0.71
2023-02-26T09:58:45.162Z,-0.70
2023-02-26T10:01:23.466Z,-0.69
2023-02-26T10:03:53.832Z,-0.67
2023-02-26T10:06:28.977Z,-0.65
2023-02-26T10:09:32.393Z,-0.72
2023-02-26T10:12:13.848Z,-0.77
2023-02-26T10:15:15.598Z,-0.79
2023-02-26T10:18:08.801Z,-0.75
2023-02-26T10:20:59.076Z,-0.78
2023-02-26T10:23:44.096Z,-0.72
2023-02-26T10:26:20.912Z,-0.71
2023-02-26T10:28:56.735Z,-0.73
2023-02-26T10:31:45.672Z,-0.68
2023-02-26T10:34:43.424Z,-0.59
2023-02-26T10:37:37.611Z,-0.49
2023-02-26T10:40:19.734Z,-0.48
2023-02-26T10:43:24.503Z,-0.45
2023-02-26T10:46:30.070Z,-0.40
2023-02-26T10:49:23.684Z,-0.44
2023-02-26T10:51:53.051Z,-0.42
2023-02-26T10:54:38.205Z,-0.36
2023-02-26T10:57:09.581Z,-0.36
2023-02-26T10:59:36.867Z,-0.33
2023-02-26T11:02:04.631Z,-0.26
2023-02-26T11:04:32.249Z,-0.28
2023-02-26T11:07:02.441Z,-0.34
2023-02-26T11:09:42.415Z,-0.38
2023-02-26T11:12:14.835Z,-0.38
2023-02-26T11:14:43.159Z,-0.37
2023-02-26T11:17:22.586Z,-0.39
2023-02-26T11:19:57.206Z,-0.37
2023-02-26T11:22:30.240Z,-0.27
2023-02-26T11:24:58.284Z,-0.20
2023-02-26T11:27:32.092Z,-0.29
2023-02-26T11:30:03.532Z,-0.32
2023-02-26T11:32:33.881Z,-0.34
2023-02-26T11:35:01.211Z,-0.32
2023-02-26T11:37:38.488Z,-0.31
2023-02-26T11:40:12.091Z,-0.23
2023-02-26T11:42:53.249Z,-0.33
2023-02-26T11:45:21.462Z,-0.28
2023-02-26T11:47:51.573Z,-0.28
2023-02-26T11:50:23.440Z,-0.26
2023-02-26T11:53:05.659Z,-0.16
2023-02-26T11:55:37.390Z,-0.18
2023-02-26T11:58:15.415Z,-0.09
2023-02-26T12:00:42.873Z,-0.04
2023-02-26T12:03:17.818Z,0.07
2023-02-26T12:05:45.616Z,0.17
2023-02-26T12:08:26.718Z,0.09
2023-02-26T12:11:30.245Z,0.15
2023-02-26T12:14:28.799Z,0.16
2023-02-26T12:17:02.160Z,0.20
2023-02-26T12:20:00.753Z,0.16
2023-02-26T12:22:57.184Z,0.10
2023-02-26T12:25:52.836Z,0.13
2023-02-26T12:28:28.417Z,0.11
2023-02-26T12:31:06.586Z,0.09
2023-02-26T12:33:42.730Z,0.19
2023-02-26T12:36:36.345Z,0.25
2023-02-26T12:39:35.289Z,0.20
2023-02-26T12:42:11.570Z,0.27
2023-02-26T12:44:44.868Z,0.29
2023-02-26T12:47:18.537Z,0.33
2023-02-26T12:50:12.119Z,0.31
2023-02-26T12:53:04.746Z,0.30
2023-02-26T12:55:38.323Z,0.33
2023-02-26T12:58:21.762Z,0.41
2023-02-26T13:01:13.919Z,0.48
2023-02-26T13:03:50.309Z,0.42
2023-02-26T13:06:24.024Z,0.40
2023-02-26T13:09:13.196Z,0.33
2023-02-26T13:12:12.733Z,0.32
2023-02-26T13:14:59.280Z,0.31
2023-02-26T13:17:45.684Z,0.31
2023-02-26T13:20:20.119Z,0.47
2023-02-26T13:22:57.053Z,0.47
2023-02-26T13:25:38.291Z,0.59
2023-02-26T13:28:19.631Z,0.57
2023-02-26T13:30:50.771Z,0.57
2023-02-26T13:33:22.018Z,0.51
2023-02-26T13:35:51.699Z,0.58
2023-02-26T13:38:24.644Z,0.59
2023-02-26T13:41:03.627Z,0.60
2023-02-26T13:44:02.704Z,0.61
2023-02-26T13:46:47.492Z,0.68
2023-02-26T13:49:26.051Z,0.72
2023-02-26T13:51:54.727Z,0.84
2023-02-26T13:54:22.019Z,0.92
2023-02-26T13:57:28.608Z,0.94
2023-02-26T14:00:12.597Z,0.93
2023-02-26T14:02:52.604Z,0.95
2023-02-26T14:05:46.402Z,0.86
2023-02-26T14:08:46.779Z,0.96
2023-02-26T14:11:32.599Z,0.89
2023-02-26T14:14:36.729Z,0.85
2023-02-26T14:17:09.774Z,0.94
2023-02-26T14:19:57.621Z,0.90
2023-02-26T14:22:31.148Z,0.89
2023-02-26T14:24:59.559Z,0.91
2023-02-26T14:27:47.423Z,0.87
2023-02-26T14:30:28.688Z,0.87
2023-02-26T14:32:59.227Z,0.82
2023-02-26T14:35:29.442Z,0.79
2023-02-26T14:38:12.781Z,0.73
2023-02-26T14:40:45.132Z,0.74
2023-02-26T14:43:19.578Z,0.71
2023-02-26T14:45:48.057Z,0.77
2023-02-26T14:48:17.854Z,0.72
2023-02-26T14:51:23.264Z,0.76
2023-02-26T14:54:18.599Z,0.77
2023-02-26T14:56:50.352Z,0.74
2023-02-26T14:59:46.485Z,0.75
2023-02-26T15:02:33.905Z,0.79
2023-02-26T15:05:39.238Z,0.76
2023-02-26T15:08:22.210Z,0.72
2023-02-26T15:11:10.572Z,0.70
2023-02-26T15:13:42.621Z,0.72
2023-02-26T15:16:12.857Z,0.69
2023-02-26T15:19:15.554Z,0.67
2023-02-26T15:22:00.136Z,0.66
2023-02-26T15:24:30.501Z,0.71
2023-02-26T15:27:02.083Z,0.40
2023-02-26T15:29:32.690Z,0.63
2023-02-26T15:32:20.619Z,0.63
2023-02-26T15:34:54.941Z,0.64
2023-02-26T15:37:26.427Z,0.62
2023-02-26T15:39:54.079Z,0.59
2023-02-26T15:42:22.976Z,0.62
2023-02-26T15:44:57.173Z,0.65
2023-02-26T15:47:24.548Z,0.51
2023-02-26T15:49:54.092Z,0.67
2023-02-26T15:52:23.515Z,0.69
2023-02-26T15:54:55.053Z,0.63
2023-02-26T15:57:24.414Z,0.66
2023-02-26T15:59:55.415Z,0.65
2023-02-26T16:02:27.075Z,0.63
2023-02-26T16:04:55.539Z,0.68
2023-02-26T16:07:23.104Z,0.63
2023-02-26T16:09:52.955Z,0.68
2023-02-26T16:12:27.693Z,0.62
2023-02-26T16:15:01.289Z,0.67
2023-02-26T16:17:33.909Z,0.72
2023-02-26T16:20:11.015Z,0.69
2023-02-26T16:22:52.250Z,0.73
2023-02-26T16:25:52.431Z,0.72
2023-02-26T16:28:22.590Z,0.68
2023-02-26T16:30:54.334Z,0.65
2023-02-26T16:33:24.197Z,0.58
2023-02-26T16:36:03.383Z,0.49
2023-02-26T16:38:53.939Z,0.38
2023-02-26T16:41:24.114Z,0.32
2023-02-26T16:43:57.031Z,0.32
2023-02-26T16:46:46.093Z,0.29
2023-02-26T16:49:24.631Z,0.31
2023-02-26T16:51:53.271Z,0.28
2023-02-26T16:54:46.651Z,0.18
2023-02-26T16:57:20.031Z,0.03
2023-02-26T16:59:50.160Z,0.10
2023-02-26T17:02:29.626Z,-0.04
2023-02-26T17:05:03.741Z,-0.14
2023-02-26T17:07:36.557Z,-0.15
2023-02-26T17:10:20.914Z,-0.17
2023-02-26T17:12:51.223Z,-0.26
2023-02-26T17:15:29.060Z,-0.28
2023-02-26T17:17:58.158Z,-0.26
2023-02-26T17:20:26.350Z,-0.25
2023-02-26T17:22:54.790Z,-0.25
2023-02-26T17:25:23.833Z,-0.28
2023-02-26T17:27:51.785Z,-0.30
2023-02-26T17:30:21.795Z,-0.20
2023-02-26T17:32:49.613Z,-0.22
2023-02-26T17:35:18.917Z,-0.12
2023-02-26T17:37:47.424Z,-0.09
2023-02-26T17:40:19.768Z,-0.06
2023-02-26T17:42:47.736Z,-0.04
2023-02-26T17:45:16.089Z,0.01
2023-02-26T17:47:44.706Z,0.07
2023-02-26T17:50:25.299Z,0.02
2023-02-26T17:52:53.239Z,0.10
2023-02-26T17:55:20.648Z,0.12
2023-02-26T17:57:48.426Z,0.06
2023-02-26T18:00:17.499Z,0.07
2023-02-26T18:02:46.049Z,0.05
2023-02-26T18:05:13.467Z,0.04
2023-02-26T18:07:41.369Z,0.04
2023-02-26T18:10:12.730Z,0.05
2023-02-26T18:12:40.643Z,0.03
2023-02-26T18:15:10.350Z,0.03
2023-02-26T18:17:38.264Z,0.05
2023-02-26T18:20:09.663Z,0.00
2023-02-26T18:22:37.370Z,-0.01
2023-02-26T18:25:05.246Z,0.03
2023-02-26T18:27:33.289Z,0.00
2023-02-26T18:30:01.588Z,0.07
2023-02-26T18:32:29.355Z,0.04
2023-02-26T18:34:56.799Z,-0.03
2023-02-26T18:37:26.380Z,0.04
2023-02-26T18:39:53.740Z,0.01
2023-02-26T18:42:23.697Z,0.04
2023-02-26T18:44:52.036Z,0.05
2023-02-26T18:47:20.936Z,0.07
2023-02-26T18:49:49.955Z,0.07
2023-02-26T18:52:18.217Z,0.06
2023-02-26T18:54:45.652Z,0.08
2023-02-26T18:57:13.259Z,0.13
2023-02-26T18:59:40.828Z,0.13
2023-02-26T19:02:12.157Z,0.14
2023-02-26T19:04:40.678Z,0.13
2023-02-26T19:07:08.668Z,0.09
2023-02-26T19:09:36.117Z,0.13
2023-02-26T19:12:04.438Z,0.19
2023-02-26T19:14:32.089Z,0.15
2023-02-26T19:17:00.487Z,0.14
2023-02-26T19:19:27.867Z,0.13
2023-02-26T19:21:56.230Z,0.14
2023-02-26T19:24:24.048Z,0.14
2023-02-26T19:26:52.336Z,0.19
2023-02-26T19:29:20.775Z,0.11
2023-02-26T19:31:48.648Z,0.17
2023-02-26T19:34:16.406Z,0.17
2023-02-26T19:36:48.393Z,0.16
2023-02-26T19:39:17.112Z,0.20
2023-02-26T19:41:46.193Z,0.19
2023-02-26T19:44:17.266Z,0.17
2023-02-26T19:46:45.163Z,0.20
2023-02-26T19:49:13.971Z,0.21
2023-02-26T19:51:45.229Z,0.10
2023-02-26T19:54:15.778Z,0.19
2023-02-26T19:56:44.231Z,0.20
2023-02-26T19:59:12.880Z,0.20
2023-02-26T20:01:42.393Z,0.21
2023-02-26T20:04:10.400Z,0.20
2023-02-26T20:06:38.393Z,0.25
2023-02-26T20:09:07.703Z,0.26
2023-02-26T20:11:35.723Z,0.25
2023-02-26T20:14:03.076Z,0.28
2023-02-26T20:16:30.941Z,0.29
2023-02-26T20:18:58.396Z,0.30
2023-02-26T20:21:27.525Z,0.30
2023-02-26T20:23:55.815Z,0.31
2023-02-26T20:26:23.908Z,0.29
2023-02-26T20:28:51.407Z,0.31
2023-02-26T20:31:19.277Z,0.27
2023-02-26T20:33:46.959Z,0.29
2023-02-26T20:36:14.838Z,0.28
2023-02-26T20:38:43.051Z,0.23
2023-02-26T20:41:11.022Z,0.21
2023-02-26T20:43:38.666Z,0.28
2023-02-26T20:46:06.487Z,0.35
2023-02-26T20:48:34.842Z,0.28
2023-02-26T20:51:06.473Z,0.26
2023-02-26T20:53:35.730Z,0.32
2023-02-26T20:56:04.321Z,0.29
2023-02-26T20:58:32.440Z,0.28
2023-02-26T21:01:00.868Z,0.26
2023-02-26T21:03:28.268Z,0.26
2023-02-26T21:05:56.102Z,0.16
2023-02-26T21:08:23.914Z,0.26
2023-02-26T21:10:52.013Z,0.20
2023-02-26T21:13:19.991Z,0.27
2023-02-26T21:15:50.362Z,0.23
2023-02-26T21:18:17.831Z,0.22
2023-02-26T21:20:45.675Z,0.23
2023-02-26T21:23:13.021Z,0.21
2023-02-26T21:25:41.078Z,0.20
2023-02-26T21:28:08.545Z,0.19
2023-02-26T21:30:36.559Z,0.15
2023-02-26T21:33:03.973Z,0.19
2023-02-26T21:35:31.803Z,0.15
2023-02-26T21:37:59.191Z,0.16
2023-02-26T21:40:26.963Z,0.14
2023-02-26T21:42:54.306Z,0.13
2023-02-26T21:45:22.018Z,0.13
2023-02-26T21:47:49.214Z,0.09
2023-02-26T21:50:17.145Z,0.08
2023-02-26T21:52:44.941Z,0.16
2023-02-26T21:55:12.797Z,0.12
2023-02-26T21:57:40.300Z,0.11
2023-02-26T22:00:10.533Z,0.12
2023-02-26T22:02:40.975Z,0.09
2023-02-26T22:05:10.204Z,0.10
2023-02-26T22:07:38.544Z,0.06
2023-02-26T22:10:08.284Z,0.07
2023-02-26T22:12:35.814Z,0.09
2023-02-26T22:15:03.868Z,0.04
2023-02-26T22:17:31.390Z,0.00
2023-02-26T22:19:58.979Z,0.04
2023-02-26T22:22:27.116Z,0.00
2023-02-26T22:24:54.664Z,0.02
2023-02-26T22:27:22.620Z,-0.07
2023-02-26T22:29:50.374Z,-0.09
2023-02-26T22:32:17.892Z,-0.02
2023-02-26T22:34:46.257Z,0.01
2023-02-26T22:37:13.811Z,-0.01
2023-02-26T22:39:42.626Z,0.04
2023-02-26T22:42:09.956Z,0.02
2023-02-26T22:44:37.792Z,0.03
2023-02-26T22:47:05.016Z,0.03
2023-02-26T22:49:32.517Z,0.06
2023-02-26T22:51:59.959Z,0.07
2023-02-26T22:54:27.690Z,0.10
2023-02-26T22:56:55.037Z,0.12
2023-02-26T22:59:22.696Z,0.08
2023-02-26T23:01:50.042Z,-0.06
2023-02-26T23:04:18.244Z,0.02
2023-02-26T23:06:45.486Z,0.02
2023-02-26T23:09:13.062Z,0.01
2023-02-26T23:11:40.277Z,-0.04
2023-02-26T23:14:08.263Z,0.03
2023-02-26T23:16:35.381Z,-0.03
2023-02-26T23:19:03.057Z,-0.05
2023-02-26T23:21:31.084Z,-0.13
2023-02-26T23:23:58.850Z,-0.06
2023-02-26T23:26:26.200Z,-0.13
2023-02-26T23:28:53.740Z,-0.05
2023-02-26T23:31:21.216Z,-0.10
2023-02-26T23:33:48.974Z,-0.15
2023-02-26T23:36:16.302Z,-0.20
2023-02-26T23:38:43.823Z,-0.17
2023-02-26T23:41:11.140Z,-0.21
2023-02-26T23:43:39.299Z,-0.19
2023-02-26T23:46:06.762Z,-0.24
2023-02-26T23:48:34.335Z,-0.26
2023-02-26T23:51:01.949Z,-0.24
2023-02-26T23:53:29.543Z,-0.30
2023-02-26T23:55:59.793Z,-0.31
2023-02-26T23:58:28.878Z,-0.35
